Aeroporto :
LOGIN :

Iscrizione | Disclaimer

   EN    FR    IT 

 










Sommario :    VFR   VFR Marginale   IFR   IFR Intensivo   IFR Molto Intensivo
Visibilità : 
Base nubi : 
>= 8 km
>= 3000ft
5 / 8 km
1000 / 3000 ft
1500m / 5 km
500 / 1000 ft
800 / 1500m
200 / 500 ft
< 800m
< 200 ft
Simboli :   Temporali  Nebbia  Neve Forte  Precipitazioni Forti  Vento > 20 kt
SIGMETs :   Varie  Temporali  Ghiacco  Turbolenza  Onda orograficha  Ceneri Vulcaniche






- Altitudine del aeroporto : 124 ft
- Codice IATA : NHT


EGWU - RAF Northolt

ULTIMO METAR :
  • 022050Z AUTO 19004KT 9999 -RA FEW060/// BKN100/// 15/12 Q1014

METARs OBSOLETI :
  • 022020Z 18005KT 9999 FEW023 BKN040 BKN080 16/11 Q1014 TEMPO 7000 SHRA SCT023
  • 021950Z 18005KT 9999 FEW027 SCT040 BKN080 16/10 Q1014 TEMPO 7000 SHRA RMK BLU TEMPO WHT
  • 021920Z 19004KT 9999 FEW027 SCT060 BKN090 16/10 Q1014 TEMPO 7000 SHRA
  • 021850Z 18005KT 9999 FEW028 BKN080 17/10 Q1014 TEMPO 7000 SHRA RMK BLU TEMPO WHT

TAF TAF EGWU
Valido dal 02 a 21 ore il 03 a 15 ore UTC


021940Z 0221/0315 18008KT 9999 SCT027 BKN045
PROB30
TEMPO 0221/0223 5000 SHRA SCT024
PROB30
TEMPO 0300/0307 SCT012
PROB30 0303/0306 7000 HZ
PROB30
TEMPO 0307/0310 SCT023
PROB30
TEMPO 0310/0315 7000 SHRA



MetMap, La meteo Aeronautica in un colpo d'occhio ! - Copyright ORBIFLY Dicembre 2007 - Disclaimer

ORBIFLY MET'MAP TEAM :

Programmazione e sviluppo : Alexandra Zaïnal
Concezione : Baudouin d'Aumeries
Aiuto per la programmazione : Marc-Olivier Méhu
Supporto tecnico e logistico : Manuel Goepfert
Aiuto per la traduzione : Arnaldo La Scala

Contatto : metmap@orbifly.com




FONTI E CREDITI :

   NOAA